sensor_id;sensor_type;location;lat;lon;timestamp;P1;durP1;ratioP1;P2;durP2;ratioP2
66593;SDS011;53450;42.584;23.366;2023-05-17T00:01:32;30.73;;;11.70;;
66593;SDS011;53450;42.584;23.366;2023-05-17T00:03:58;80.57;;;24.30;;
66593;SDS011;53450;42.584;23.366;2023-05-17T00:06:23;36.92;;;12.85;;
66593;SDS011;53450;42.584;23.366;2023-05-17T00:08:49;55.95;;;15.90;;
66593;SDS011;53450;42.584;23.366;2023-05-17T00:11:15;55.50;;;14.48;;
66593;SDS011;53450;42.584;23.366;2023-05-17T00:13:40;18.85;;;6.80;;
66593;SDS011;53450;42.584;23.366;2023-05-17T00:16:06;29.75;;;9.02;;
66593;SDS011;53450;42.584;23.366;2023-05-17T00:18:32;24.40;;;6.55;;
66593;SDS011;53450;42.584;23.366;2023-05-17T00:20:58;15.98;;;6.30;;
66593;SDS011;53450;42.584;23.366;2023-05-17T00:23:24;129.15;;;32.00;;
66593;SDS011;53450;42.584;23.366;2023-05-17T00:25:49;293.15;;;73.50;;
66593;SDS011;53450;42.584;23.366;2023-05-17T00:28:15;40.20;;;10.55;;
66593;SDS011;53450;42.584;23.366;2023-05-17T00:30:41;14.48;;;5.20;;
66593;SDS011;53450;42.584;23.366;2023-05-17T00:33:08;28.27;;;9.50;;
66593;SDS011;53450;42.584;23.366;2023-05-17T00:35:33;34.30;;;10.75;;
66593;SDS011;53450;42.584;23.366;2023-05-17T00:37:59;28.85;;;10.82;;
66593;SDS011;53450;42.584;23.366;2023-05-17T00:40:25;35.22;;;12.43;;
66593;SDS011;53450;42.584;23.366;2023-05-17T00:42:50;21.92;;;7.85;;
66593;SDS011;53450;42.584;23.366;2023-05-17T00:45:16;21.48;;;7.07;;
66593;SDS011;53450;42.584;23.366;2023-05-17T00:47:42;17.40;;;5.78;;
66593;SDS011;53450;42.584;23.366;2023-05-17T00:50:07;10.95;;;4.82;;
66593;SDS011;53450;42.584;23.366;2023-05-17T00:52:34;16.33;;;4.90;;
66593;SDS011;53450;42.584;23.366;2023-05-17T00:55:00;12.35;;;4.80;;
66593;SDS011;53450;42.584;23.366;2023-05-17T00:57:27;15.40;;;4.70;;
66593;SDS011;53450;42.584;23.366;2023-05-17T00:59:54;13.27;;;4.97;;
66593;SDS011;53450;42.584;23.366;2023-05-17T01:02:20;11.32;;;4.18;;
66593;SDS011;53450;42.584;23.366;2023-05-17T01:04:47;17.90;;;5.15;;
66593;SDS011;53450;42.584;23.366;2023-05-17T01:07:13;14.73;;;5.30;;
66593;SDS011;53450;42.584;23.366;2023-05-17T01:09:40;12.75;;;4.72;;
66593;SDS011;53450;42.584;23.366;2023-05-17T01:15:03;16.92;;;4.70;;
66593;SDS011;53450;42.584;23.366;2023-05-17T01:23:06;18.40;;;5.18;;
66593;SDS011;53450;42.584;23.366;2023-05-17T01:28:31;15.13;;;4.65;;
66593;SDS011;53450;42.584;23.366;2023-05-17T01:31:00;13.95;;;5.22;;
66593;SDS011;53450;42.584;23.366;2023-05-17T01:33:28;13.45;;;4.57;;
66593;SDS011;53450;42.584;23.366;2023-05-17T01:35:55;20.15;;;5.20;;
66593;SDS011;53450;42.584;23.366;2023-05-17T01:38:20;24.40;;;5.50;;
66593;SDS011;53450;42.584;23.366;2023-05-17T01:41:06;20.25;;;6.32;;
66593;SDS011;53450;42.584;23.366;2023-05-17T01:43:59;19.08;;;5.97;;
66593;SDS011;53450;42.584;23.366;2023-05-17T01:46:35;16.77;;;6.13;;
66593;SDS011;53450;42.584;23.366;2023-05-17T01:52:10;16.65;;;6.60;;
66593;SDS011;53450;42.584;23.366;2023-05-17T01:54:55;14.90;;;7.32;;
66593;SDS011;53450;42.584;23.366;2023-05-17T01:57:34;19.27;;;7.47;;
66593;SDS011;53450;42.584;23.366;2023-05-17T02:00:01;18.25;;;8.18;;
66593;SDS011;53450;42.584;23.366;2023-05-17T02:02:39;18.55;;;9.10;;
66593;SDS011;53450;42.584;23.366;2023-05-17T02:05:05;22.40;;;9.70;;
66593;SDS011;53450;42.584;23.366;2023-05-17T02:07:31;25.63;;;10.35;;
66593;SDS011;53450;42.584;23.366;2023-05-17T02:09:56;22.00;;;9.60;;
66593;SDS011;53450;42.584;23.366;2023-05-17T02:12:22;37.90;;;10.18;;
66593;SDS011;53450;42.584;23.366;2023-05-17T02:14:49;23.08;;;10.25;;
66593;SDS011;53450;42.584;23.366;2023-05-17T02:17:15;23.98;;;11.07;;
66593;SDS011;53450;42.584;23.366;2023-05-17T02:20:07;23.25;;;10.35;;
66593;SDS011;53450;42.584;23.366;2023-05-17T02:22:58;18.52;;;9.60;;
66593;SDS011;53450;42.584;23.366;2023-05-17T02:25:24;21.58;;;10.02;;
66593;SDS011;53450;42.584;23.366;2023-05-17T02:27:50;19.20;;;10.50;;
66593;SDS011;53450;42.584;23.366;2023-05-17T02:30:16;18.73;;;9.93;;
66593;SDS011;53450;42.584;23.366;2023-05-17T02:32:41;18.40;;;8.75;;
66593;SDS011;53450;42.584;23.366;2023-05-17T02:35:07;22.88;;;8.05;;
66593;SDS011;53450;42.584;23.366;2023-05-17T02:37:33;23.70;;;8.38;;
66593;SDS011;53450;42.584;23.366;2023-05-17T02:39:59;13.48;;;7.45;;
66593;SDS011;53450;42.584;23.366;2023-05-17T02:42:24;15.02;;;7.38;;
66593;SDS011;53450;42.584;23.366;2023-05-17T02:44:50;18.40;;;8.70;;
66593;SDS011;53450;42.584;23.366;2023-05-17T02:47:18;23.75;;;8.90;;
66593;SDS011;53450;42.584;23.366;2023-05-17T02:50:12;17.92;;;8.95;;
66593;SDS011;53450;42.584;23.366;2023-05-17T02:52:38;27.23;;;10.38;;
66593;SDS011;53450;42.584;23.366;2023-05-17T02:55:05;21.90;;;10.18;;
66593;SDS011;53450;42.584;23.366;2023-05-17T02:57:31;18.38;;;9.60;;
66593;SDS011;53450;42.584;23.366;2023-05-17T02:59:56;18.00;;;9.57;;
66593;SDS011;53450;42.584;23.366;2023-05-17T03:02:22;26.02;;;10.77;;
66593;SDS011;53450;42.584;23.366;2023-05-17T03:04:48;25.85;;;10.85;;
66593;SDS011;53450;42.584;23.366;2023-05-17T03:07:14;21.60;;;10.60;;
66593;SDS011;53450;42.584;23.366;2023-05-17T03:09:41;32.42;;;10.05;;
66593;SDS011;53450;42.584;23.366;2023-05-17T03:12:07;22.92;;;9.52;;
66593;SDS011;53450;42.584;23.366;2023-05-17T03:14:33;19.77;;;8.95;;
66593;SDS011;53450;42.584;23.366;2023-05-17T03:17:02;18.83;;;9.18;;
66593;SDS011;53450;42.584;23.366;2023-05-17T03:19:28;28.88;;;10.43;;
66593;SDS011;53450;42.584;23.366;2023-05-17T03:21:54;18.55;;;8.75;;
66593;SDS011;53450;42.584;23.366;2023-05-17T03:24:20;16.67;;;8.52;;
66593;SDS011;53450;42.584;23.366;2023-05-17T03:26:46;29.00;;;10.38;;
66593;SDS011;53450;42.584;23.366;2023-05-17T03:29:12;20.63;;;11.38;;
66593;SDS011;53450;42.584;23.366;2023-05-17T03:31:41;17.80;;;11.43;;
66593;SDS011;53450;42.584;23.366;2023-05-17T03:34:06;25.55;;;11.80;;
66593;SDS011;53450;42.584;23.366;2023-05-17T03:36:33;20.67;;;13.32;;
66593;SDS011;53450;42.584;23.366;2023-05-17T03:38:59;24.50;;;12.05;;
66593;SDS011;53450;42.584;23.366;2023-05-17T03:41:25;25.45;;;11.30;;
66593;SDS011;53450;42.584;23.366;2023-05-17T03:43:51;26.92;;;12.10;;
66593;SDS011;53450;42.584;23.366;2023-05-17T03:46:18;23.00;;;10.70;;
66593;SDS011;53450;42.584;23.366;2023-05-17T03:48:46;22.10;;;12.13;;
66593;SDS011;53450;42.584;23.366;2023-05-17T03:51:11;25.08;;;10.10;;
66593;SDS011;53450;42.584;23.366;2023-05-17T03:53:37;18.63;;;9.10;;
66593;SDS011;53450;42.584;23.366;2023-05-17T03:56:32;14.77;;;7.78;;
66593;SDS011;53450;42.584;23.366;2023-05-17T03:59:23;21.00;;;8.47;;
66593;SDS011;53450;42.584;23.366;2023-05-17T04:01:49;30.98;;;9.65;;
66593;SDS011;53450;42.584;23.366;2023-05-17T04:04:15;19.17;;;8.55;;
66593;SDS011;53450;42.584;23.366;2023-05-17T04:06:41;23.08;;;10.18;;
66593;SDS011;53450;42.584;23.366;2023-05-17T04:09:07;15.93;;;9.38;;
66593;SDS011;53450;42.584;23.366;2023-05-17T04:11:35;17.70;;;10.00;;
66593;SDS011;53450;42.584;23.366;2023-05-17T04:14:03;20.92;;;10.98;;
66593;SDS011;53450;42.584;23.366;2023-05-17T04:16:29;24.08;;;12.38;;
66593;SDS011;53450;42.584;23.366;2023-05-17T04:18:56;21.92;;;11.73;;
66593;SDS011;53450;42.584;23.366;2023-05-17T04:21:27;21.07;;;10.07;;
66593;SDS011;53450;42.584;23.366;2023-05-17T04:23:54;21.58;;;8.90;;
66593;SDS011;53450;42.584;23.366;2023-05-17T04:26:20;15.73;;;7.35;;
66593;SDS011;53450;42.584;23.366;2023-05-17T04:28:46;21.90;;;8.90;;
66593;SDS011;53450;42.584;23.366;2023-05-17T04:31:14;25.65;;;9.48;;
66593;SDS011;53450;42.584;23.366;2023-05-17T04:33:41;26.52;;;16.50;;
66593;SDS011;53450;42.584;23.366;2023-05-17T04:36:07;24.55;;;14.30;;
66593;SDS011;53450;42.584;23.366;2023-05-17T04:38:33;34.17;;;18.65;;
66593;SDS011;53450;42.584;23.366;2023-05-17T04:41:02;28.25;;;16.38;;
66593;SDS011;53450;42.584;23.366;2023-05-17T04:43:31;23.83;;;14.05;;
66593;SDS011;53450;42.584;23.366;2023-05-17T04:45:58;24.30;;;13.55;;
66593;SDS011;53450;42.584;23.366;2023-05-17T04:48:24;28.67;;;15.93;;
66593;SDS011;53450;42.584;23.366;2023-05-17T04:50:52;30.65;;;15.25;;
66593;SDS011;53450;42.584;23.366;2023-05-17T04:53:18;26.40;;;14.68;;
66593;SDS011;53450;42.584;23.366;2023-05-17T04:55:45;24.35;;;14.02;;
66593;SDS011;53450;42.584;23.366;2023-05-17T04:58:13;25.98;;;14.10;;
66593;SDS011;53450;42.584;23.366;2023-05-17T05:00:45;47.78;;;22.85;;
66593;SDS011;53450;42.584;23.366;2023-05-17T05:03:26;28.50;;;15.00;;
66593;SDS011;53450;42.584;23.366;2023-05-17T05:05:53;31.00;;;15.07;;
66593;SDS011;53450;42.584;23.366;2023-05-17T05:08:21;31.58;;;13.43;;
66593;SDS011;53450;42.584;23.366;2023-05-17T05:10:50;29.50;;;12.45;;
66593;SDS011;53450;42.584;23.366;2023-05-17T05:13:21;30.30;;;14.23;;
66593;SDS011;53450;42.584;23.366;2023-05-17T05:15:52;23.38;;;13.63;;
66593;SDS011;53450;42.584;23.366;2023-05-17T05:18:18;21.83;;;12.35;;
66593;SDS011;53450;42.584;23.366;2023-05-17T05:20:47;35.58;;;15.15;;
66593;SDS011;53450;42.584;23.366;2023-05-17T05:23:13;31.90;;;13.43;;
66593;SDS011;53450;42.584;23.366;2023-05-17T05:25:42;32.25;;;13.50;;
66593;SDS011;53450;42.584;23.366;2023-05-17T05:28:37;19.92;;;11.55;;
66593;SDS011;53450;42.584;23.366;2023-05-17T05:31:13;22.50;;;11.93;;
66593;SDS011;53450;42.584;23.366;2023-05-17T05:33:46;20.23;;;11.20;;
66593;SDS011;53450;42.584;23.366;2023-05-17T05:36:15;27.98;;;11.18;;
66593;SDS011;53450;42.584;23.366;2023-05-17T05:38:41;24.15;;;12.52;;
66593;SDS011;53450;42.584;23.366;2023-05-17T05:41:07;17.55;;;9.80;;
66593;SDS011;53450;42.584;23.366;2023-05-17T05:43:35;41.55;;;17.98;;
66593;SDS011;53450;42.584;23.366;2023-05-17T05:46:02;19.48;;;11.43;;
66593;SDS011;53450;42.584;23.366;2023-05-17T05:48:29;22.23;;;10.73;;
66593;SDS011;53450;42.584;23.366;2023-05-17T05:50:55;23.77;;;10.88;;
66593;SDS011;53450;42.584;23.366;2023-05-17T05:53:20;24.60;;;12.73;;
66593;SDS011;53450;42.584;23.366;2023-05-17T05:55:52;21.48;;;10.45;;
66593;SDS011;53450;42.584;23.366;2023-05-17T05:58:19;19.98;;;10.25;;
66593;SDS011;53450;42.584;23.366;2023-05-17T06:00:45;18.80;;;9.38;;
66593;SDS011;53450;42.584;23.366;2023-05-17T06:03:11;20.33;;;9.07;;
66593;SDS011;53450;42.584;23.366;2023-05-17T06:06:03;15.90;;;7.70;;
66593;SDS011;53450;42.584;23.366;2023-05-17T06:08:54;16.25;;;8.38;;
66593;SDS011;53450;42.584;23.366;2023-05-17T06:11:20;19.92;;;9.20;;
66593;SDS011;53450;42.584;23.366;2023-05-17T06:13:47;21.92;;;10.15;;
66593;SDS011;53450;42.584;23.366;2023-05-17T06:16:13;14.07;;;7.47;;
66593;SDS011;53450;42.584;23.366;2023-05-17T06:18:39;22.00;;;6.75;;
66593;SDS011;53450;42.584;23.366;2023-05-17T06:21:08;12.77;;;7.15;;
66593;SDS011;53450;42.584;23.366;2023-05-17T06:23:33;10.23;;;7.28;;
66593;SDS011;53450;42.584;23.366;2023-05-17T06:25:59;18.15;;;8.15;;
66593;SDS011;53450;42.584;23.366;2023-05-17T06:28:25;20.20;;;7.80;;
66593;SDS011;53450;42.584;23.366;2023-05-17T06:30:50;11.73;;;6.40;;
66593;SDS011;53450;42.584;23.366;2023-05-17T06:33:16;16.05;;;7.90;;
66593;SDS011;53450;42.584;23.366;2023-05-17T06:35:42;15.85;;;6.80;;
66593;SDS011;53450;42.584;23.366;2023-05-17T06:38:07;16.35;;;6.47;;
66593;SDS011;53450;42.584;23.366;2023-05-17T06:40:33;19.45;;;7.40;;
66593;SDS011;53450;42.584;23.366;2023-05-17T06:42:59;15.27;;;7.13;;
66593;SDS011;53450;42.584;23.366;2023-05-17T06:45:26;12.77;;;6.78;;
66593;SDS011;53450;42.584;23.366;2023-05-17T06:47:52;15.75;;;6.20;;
66593;SDS011;53450;42.584;23.366;2023-05-17T06:50:18;14.10;;;6.35;;
66593;SDS011;53450;42.584;23.366;2023-05-17T06:52:44;11.32;;;6.57;;
66593;SDS011;53450;42.584;23.366;2023-05-17T06:55:10;22.58;;;7.07;;
66593;SDS011;53450;42.584;23.366;2023-05-17T06:57:36;16.92;;;7.22;;
66593;SDS011;53450;42.584;23.366;2023-05-17T07:00:02;17.60;;;7.90;;
66593;SDS011;53450;42.584;23.366;2023-05-17T07:02:31;13.75;;;6.63;;
66593;SDS011;53450;42.584;23.366;2023-05-17T07:04:57;14.43;;;6.60;;
66593;SDS011;53450;42.584;23.366;2023-05-17T07:07:22;12.40;;;6.60;;
66593;SDS011;53450;42.584;23.366;2023-05-17T07:09:48;17.85;;;7.28;;
66593;SDS011;53450;42.584;23.366;2023-05-17T07:12:14;15.20;;;8.05;;
66593;SDS011;53450;42.584;23.366;2023-05-17T07:14:40;12.68;;;7.60;;
66593;SDS011;53450;42.584;23.366;2023-05-17T07:17:05;15.90;;;8.18;;
66593;SDS011;53450;42.584;23.366;2023-05-17T07:19:31;17.23;;;6.93;;
66593;SDS011;53450;42.584;23.366;2023-05-17T07:21:56;20.23;;;7.93;;
66593;SDS011;53450;42.584;23.366;2023-05-17T07:24:22;14.18;;;7.35;;
66593;SDS011;53450;42.584;23.366;2023-05-17T07:26:48;13.30;;;7.45;;
66593;SDS011;53450;42.584;23.366;2023-05-17T07:29:14;13.05;;;7.35;;
66593;SDS011;53450;42.584;23.366;2023-05-17T07:31:39;12.27;;;6.88;;
66593;SDS011;53450;42.584;23.366;2023-05-17T07:34:05;40.17;;;8.43;;
66593;SDS011;53450;42.584;23.366;2023-05-17T07:36:31;18.85;;;7.30;;
66593;SDS011;53450;42.584;23.366;2023-05-17T07:38:57;15.32;;;6.80;;
66593;SDS011;53450;42.584;23.366;2023-05-17T07:41:22;19.75;;;8.63;;
66593;SDS011;53450;42.584;23.366;2023-05-17T07:43:48;15.93;;;7.78;;
66593;SDS011;53450;42.584;23.366;2023-05-17T07:46:15;13.73;;;7.63;;
66593;SDS011;53450;42.584;23.366;2023-05-17T07:48:40;17.67;;;6.15;;
66593;SDS011;53450;42.584;23.366;2023-05-17T07:51:06;14.52;;;6.22;;
66593;SDS011;53450;42.584;23.366;2023-05-17T07:53:31;11.20;;;7.13;;
66593;SDS011;53450;42.584;23.366;2023-05-17T07:55:57;13.00;;;6.53;;
66593;SDS011;53450;42.584;23.366;2023-05-17T07:58:23;20.85;;;7.25;;
66593;SDS011;53450;42.584;23.366;2023-05-17T08:00:48;18.45;;;6.80;;
66593;SDS011;53450;42.584;23.366;2023-05-17T08:03:14;9.45;;;5.95;;
66593;SDS011;53450;42.584;23.366;2023-05-17T08:05:39;10.05;;;6.60;;
66593;SDS011;53450;42.584;23.366;2023-05-17T12:07:45;13.90;;;5.65;;
66593;SDS011;53450;42.584;23.366;2023-05-17T12:10:14;12.68;;;5.63;;
66593;SDS011;53450;42.584;23.366;2023-05-17T12:12:39;18.80;;;6.00;;
66593;SDS011;53450;42.584;23.366;2023-05-17T12:15:06;10.90;;;5.32;;
66593;SDS011;53450;42.584;23.366;2023-05-17T12:17:34;15.02;;;5.95;;
66593;SDS011;53450;42.584;23.366;2023-05-17T12:20:06;14.63;;;5.70;;
66593;SDS011;53450;42.584;23.366;2023-05-17T12:22:33;14.77;;;6.70;;
66593;SDS011;53450;42.584;23.366;2023-05-17T16:24:55;17.40;;;7.65;;
66593;SDS011;53450;42.584;23.366;2023-05-17T16:27:46;17.73;;;5.20;;
66593;SDS011;53450;42.584;23.366;2023-05-17T16:30:14;10.25;;;4.65;;
66593;SDS011;53450;42.584;23.366;2023-05-17T16:32:41;11.52;;;4.63;;
66593;SDS011;53450;42.584;23.366;2023-05-17T16:35:07;11.65;;;4.88;;
66593;SDS011;53450;42.584;23.366;2023-05-17T16:37:33;17.58;;;5.22;;
66593;SDS011;53450;42.584;23.366;2023-05-17T16:39:59;19.83;;;5.80;;
66593;SDS011;53450;42.584;23.366;2023-05-17T16:42:24;11.30;;;4.63;;
66593;SDS011;53450;42.584;23.366;2023-05-17T16:44:51;14.93;;;4.75;;
66593;SDS011;53450;42.584;23.366;2023-05-17T16:47:16;17.15;;;4.55;;
66593;SDS011;53450;42.584;23.366;2023-05-17T16:49:42;19.52;;;4.55;;
66593;SDS011;53450;42.584;23.366;2023-05-17T16:52:08;8.80;;;4.28;;
66593;SDS011;53450;42.584;23.366;2023-05-17T16:54:34;10.98;;;4.15;;
66593;SDS011;53450;42.584;23.366;2023-05-17T16:57:01;9.82;;;4.60;;
66593;SDS011;53450;42.584;23.366;2023-05-17T16:59:28;18.67;;;7.97;;
66593;SDS011;53450;42.584;23.366;2023-05-17T17:01:55;11.85;;;6.65;;
66593;SDS011;53450;42.584;23.366;2023-05-17T17:04:21;25.05;;;13.88;;
66593;SDS011;53450;42.584;23.366;2023-05-17T17:06:46;29.27;;;15.65;;
66593;SDS011;53450;42.584;23.366;2023-05-17T17:09:12;25.30;;;16.10;;
66593;SDS011;53450;42.584;23.366;2023-05-17T17:11:38;19.60;;;12.50;;
66593;SDS011;53450;42.584;23.366;2023-05-17T17:14:29;14.82;;;4.97;;
66593;SDS011;53450;42.584;23.366;2023-05-17T17:17:21;11.65;;;5.38;;
66593;SDS011;53450;42.584;23.366;2023-05-17T17:19:47;20.77;;;12.15;;
66593;SDS011;53450;42.584;23.366;2023-05-17T17:22:12;25.50;;;14.93;;
66593;SDS011;53450;42.584;23.366;2023-05-17T17:24:41;30.80;;;16.10;;
66593;SDS011;53450;42.584;23.366;2023-05-17T17:27:08;47.30;;;23.23;;
66593;SDS011;53450;42.584;23.366;2023-05-17T17:29:34;48.08;;;23.45;;
66593;SDS011;53450;42.584;23.366;2023-05-17T17:31:59;35.97;;;20.00;;
66593;SDS011;53450;42.584;23.366;2023-05-17T17:34:25;47.05;;;23.75;;
66593;SDS011;53450;42.584;23.366;2023-05-17T17:36:51;33.20;;;16.55;;
66593;SDS011;53450;42.584;23.366;2023-05-17T17:39:20;34.08;;;14.80;;
66593;SDS011;53450;42.584;23.366;2023-05-17T17:41:46;31.95;;;16.38;;
66593;SDS011;53450;42.584;23.366;2023-05-17T17:45:03;39.25;;;18.63;;
66593;SDS011;53450;42.584;23.366;2023-05-17T17:47:30;43.50;;;21.23;;
66593;SDS011;53450;42.584;23.366;2023-05-17T17:49:55;31.42;;;15.45;;
66593;SDS011;53450;42.584;23.366;2023-05-17T17:52:21;31.05;;;14.85;;
66593;SDS011;53450;42.584;23.366;2023-05-17T17:54:47;29.67;;;14.43;;
66593;SDS011;53450;42.584;23.366;2023-05-17T17:57:13;45.63;;;21.30;;
66593;SDS011;53450;42.584;23.366;2023-05-17T17:59:38;107.10;;;44.92;;
66593;SDS011;53450;42.584;23.366;2023-05-17T18:02:04;95.55;;;43.28;;
66593;SDS011;53450;42.584;23.366;2023-05-17T18:04:30;74.80;;;33.72;;
66593;SDS011;53450;42.584;23.366;2023-05-17T18:06:55;50.58;;;21.35;;
66593;SDS011;53450;42.584;23.366;2023-05-17T18:09:21;40.85;;;17.15;;
66593;SDS011;53450;42.584;23.366;2023-05-17T18:11:47;27.90;;;13.57;;
66593;SDS011;53450;42.584;23.366;2023-05-17T18:14:13;31.83;;;18.00;;
66593;SDS011;53450;42.584;23.366;2023-05-17T18:17:04;23.40;;;11.48;;
66593;SDS011;53450;42.584;23.366;2023-05-17T18:19:32;23.33;;;12.32;;
66593;SDS011;53450;42.584;23.366;2023-05-17T18:21:58;31.08;;;17.67;;
66593;SDS011;53450;42.584;23.366;2023-05-17T18:24:23;29.95;;;15.68;;
66593;SDS011;53450;42.584;23.366;2023-05-17T18:26:49;24.73;;;17.80;;
66593;SDS011;53450;42.584;23.366;2023-05-17T18:29:15;23.98;;;15.32;;
66593;SDS011;53450;42.584;23.366;2023-05-17T18:31:40;27.95;;;15.73;;
66593;SDS011;53450;42.584;23.366;2023-05-17T18:34:06;27.77;;;15.45;;
66593;SDS011;53450;42.584;23.366;2023-05-17T18:36:31;22.77;;;11.52;;
66593;SDS011;53450;42.584;23.366;2023-05-17T18:38:57;22.23;;;11.98;;
66593;SDS011;53450;42.584;23.366;2023-05-17T18:41:25;23.30;;;10.82;;
66593;SDS011;53450;42.584;23.366;2023-05-17T18:43:51;13.32;;;8.75;;
66593;SDS011;53450;42.584;23.366;2023-05-17T18:46:17;10.10;;;7.45;;
66593;SDS011;53450;42.584;23.366;2023-05-17T18:48:43;14.50;;;6.97;;
66593;SDS011;53450;42.584;23.366;2023-05-17T18:51:09;15.30;;;7.38;;
66593;SDS011;53450;42.584;23.366;2023-05-17T18:53:34;10.45;;;6.25;;
66593;SDS011;53450;42.584;23.366;2023-05-17T18:56:00;14.20;;;7.13;;
66593;SDS011;53450;42.584;23.366;2023-05-17T18:58:27;12.70;;;6.40;;
66593;SDS011;53450;42.584;23.366;2023-05-17T19:00:53;11.70;;;6.20;;
66593;SDS011;53450;42.584;23.366;2023-05-17T19:03:20;11.30;;;6.05;;
66593;SDS011;53450;42.584;23.366;2023-05-17T19:05:46;39.40;;;24.17;;
66593;SDS011;53450;42.584;23.366;2023-05-17T19:08:12;44.13;;;24.15;;
66593;SDS011;53450;42.584;23.366;2023-05-17T19:10:38;34.17;;;20.83;;
66593;SDS011;53450;42.584;23.366;2023-05-17T19:13:04;43.58;;;24.13;;
66593;SDS011;53450;42.584;23.366;2023-05-17T19:15:31;63.50;;;34.15;;
66593;SDS011;53450;42.584;23.366;2023-05-17T19:17:57;35.65;;;19.25;;
66593;SDS011;53450;42.584;23.366;2023-05-17T19:20:22;27.63;;;15.70;;
66593;SDS011;53450;42.584;23.366;2023-05-17T19:22:48;20.75;;;9.88;;
66593;SDS011;53450;42.584;23.366;2023-05-17T19:25:14;14.20;;;7.57;;
66593;SDS011;53450;42.584;23.366;2023-05-17T19:27:43;14.55;;;6.70;;
66593;SDS011;53450;42.584;23.366;2023-05-17T19:30:08;19.70;;;7.93;;
66593;SDS011;53450;42.584;23.366;2023-05-17T19:32:34;14.13;;;6.90;;
66593;SDS011;53450;42.584;23.366;2023-05-17T19:35:03;11.98;;;6.65;;
66593;SDS011;53450;42.584;23.366;2023-05-17T19:37:29;10.32;;;6.03;;
66593;SDS011;53450;42.584;23.366;2023-05-17T19:39:57;11.68;;;5.68;;
66593;SDS011;53450;42.584;23.366;2023-05-17T19:42:23;11.35;;;6.10;;
66593;SDS011;53450;42.584;23.366;2023-05-17T19:44:49;11.00;;;5.32;;
66593;SDS011;53450;42.584;23.366;2023-05-17T19:47:15;14.40;;;7.25;;
66593;SDS011;53450;42.584;23.366;2023-05-17T19:49:41;13.43;;;7.53;;
66593;SDS011;53450;42.584;23.366;2023-05-17T19:52:07;16.55;;;6.78;;
66593;SDS011;53450;42.584;23.366;2023-05-17T19:54:33;14.32;;;6.55;;
66593;SDS011;53450;42.584;23.366;2023-05-17T19:57:23;14.00;;;7.03;;
66593;SDS011;53450;42.584;23.366;2023-05-17T20:00:14;10.03;;;7.27;;
66593;SDS011;53450;42.584;23.366;2023-05-17T20:02:42;16.65;;;10.90;;
66593;SDS011;53450;42.584;23.366;2023-05-17T20:05:08;15.30;;;9.00;;
66593;SDS011;53450;42.584;23.366;2023-05-17T20:07:34;16.27;;;9.15;;
66593;SDS011;53450;42.584;23.366;2023-05-17T20:10:00;13.90;;;9.68;;
66593;SDS011;53450;42.584;23.366;2023-05-17T20:12:25;17.83;;;9.55;;
66593;SDS011;53450;42.584;23.366;2023-05-17T20:14:51;54.47;;;34.22;;
66593;SDS011;53450;42.584;23.366;2023-05-17T20:17:18;43.03;;;26.48;;
66593;SDS011;53450;42.584;23.366;2023-05-17T20:19:43;26.48;;;11.63;;
66593;SDS011;53450;42.584;23.366;2023-05-17T20:22:09;16.48;;;10.98;;
66593;SDS011;53450;42.584;23.366;2023-05-17T20:24:35;41.63;;;25.27;;
66593;SDS011;53450;42.584;23.366;2023-05-17T20:27:05;58.20;;;35.60;;
66593;SDS011;53450;42.584;23.366;2023-05-17T20:29:30;33.47;;;22.73;;
66593;SDS011;53450;42.584;23.366;2023-05-17T20:31:57;15.63;;;11.27;;
66593;SDS011;53450;42.584;23.366;2023-05-17T20:34:22;7.18;;;4.35;;
66593;SDS011;53450;42.584;23.366;2023-05-17T20:36:53;14.82;;;6.25;;
66593;SDS011;53450;42.584;23.366;2023-05-17T20:39:19;14.00;;;4.18;;
66593;SDS011;53450;42.584;23.366;2023-05-17T20:41:48;6.90;;;3.10;;
66593;SDS011;53450;42.584;23.366;2023-05-17T20:44:13;8.45;;;3.00;;
66593;SDS011;53450;42.584;23.366;2023-05-17T20:46:44;7.95;;;3.28;;
66593;SDS011;53450;42.584;23.366;2023-05-17T20:49:10;9.38;;;3.80;;
66593;SDS011;53450;42.584;23.366;2023-05-17T20:51:36;9.80;;;3.40;;
66593;SDS011;53450;42.584;23.366;2023-05-17T20:54:02;12.85;;;3.70;;
66593;SDS011;53450;42.584;23.366;2023-05-17T20:56:30;5.88;;;2.85;;
66593;SDS011;53450;42.584;23.366;2023-05-17T20:58:56;11.00;;;3.67;;
66593;SDS011;53450;42.584;23.366;2023-05-17T21:01:22;12.35;;;3.63;;
66593;SDS011;53450;42.584;23.366;2023-05-17T21:03:47;6.40;;;3.70;;
66593;SDS011;53450;42.584;23.366;2023-05-17T21:06:15;7.85;;;3.80;;
66593;SDS011;53450;42.584;23.366;2023-05-17T21:08:42;7.85;;;3.53;;
66593;SDS011;53450;42.584;23.366;2023-05-17T21:11:07;11.02;;;4.00;;
66593;SDS011;53450;42.584;23.366;2023-05-17T21:13:33;10.05;;;3.92;;
66593;SDS011;53450;42.584;23.366;2023-05-17T21:15:59;9.13;;;2.97;;
66593;SDS011;53450;42.584;23.366;2023-05-17T21:18:24;15.27;;;3.47;;
66593;SDS011;53450;42.584;23.366;2023-05-17T21:20:50;12.35;;;3.70;;
66593;SDS011;53450;42.584;23.366;2023-05-17T21:23:17;8.27;;;3.80;;
66593;SDS011;53450;42.584;23.366;2023-05-17T21:25:43;7.22;;;3.78;;
66593;SDS011;53450;42.584;23.366;2023-05-17T21:28:09;10.70;;;4.50;;
66593;SDS011;53450;42.584;23.366;2023-05-17T21:30:34;11.82;;;5.45;;
66593;SDS011;53450;42.584;23.366;2023-05-17T21:33:00;11.77;;;5.35;;
66593;SDS011;53450;42.584;23.366;2023-05-17T21:35:26;36.33;;;19.25;;
66593;SDS011;53450;42.584;23.366;2023-05-17T21:37:52;12.95;;;5.45;;
66593;SDS011;53450;42.584;23.366;2023-05-17T21:40:17;13.43;;;5.43;;
66593;SDS011;53450;42.584;23.366;2023-05-17T21:42:43;9.02;;;4.57;;
66593;SDS011;53450;42.584;23.366;2023-05-17T21:45:08;18.98;;;5.65;;
66593;SDS011;53450;42.584;23.366;2023-05-17T21:47:35;13.07;;;5.10;;
66593;SDS011;53450;42.584;23.366;2023-05-17T21:50:01;9.35;;;4.47;;
66593;SDS011;53450;42.584;23.366;2023-05-17T21:52:27;13.57;;;4.50;;
66593;SDS011;53450;42.584;23.366;2023-05-17T21:55:19;8.27;;;4.25;;
66593;SDS011;53450;42.584;23.366;2023-05-17T21:57:44;10.02;;;4.18;;
66593;SDS011;53450;42.584;23.366;2023-05-17T22:00:10;8.63;;;4.45;;
66593;SDS011;53450;42.584;23.366;2023-05-17T22:02:42;7.95;;;3.67;;
66593;SDS011;53450;42.584;23.366;2023-05-17T22:05:08;14.60;;;3.97;;
66593;SDS011;53450;42.584;23.366;2023-05-17T22:07:33;7.13;;;2.97;;
66593;SDS011;53450;42.584;23.366;2023-05-17T22:10:00;4.68;;;3.15;;
66593;SDS011;53450;42.584;23.366;2023-05-17T22:12:51;8.63;;;2.65;;
66593;SDS011;53450;42.584;23.366;2023-05-17T22:15:42;5.80;;;2.95;;
66593;SDS011;53450;42.584;23.366;2023-05-17T22:18:09;10.40;;;3.05;;
66593;SDS011;53450;42.584;23.366;2023-05-17T22:20:37;7.68;;;2.47;;
66593;SDS011;53450;42.584;23.366;2023-05-17T22:23:03;3.75;;;2.17;;
66593;SDS011;53450;42.584;23.366;2023-05-17T22:25:29;5.72;;;2.78;;
66593;SDS011;53450;42.584;23.366;2023-05-17T22:27:54;4.22;;;2.38;;
66593;SDS011;53450;42.584;23.366;2023-05-17T22:30:20;8.65;;;2.30;;
66593;SDS011;53450;42.584;23.366;2023-05-17T22:32:46;3.47;;;2.38;;
66593;SDS011;53450;42.584;23.366;2023-05-17T22:35:12;6.43;;;2.50;;
66593;SDS011;53450;42.584;23.366;2023-05-17T22:37:38;7.90;;;4.00;;